createdAt,value
2022-09-15T00:01:01.067Z,9.40
2022-09-15T00:03:28.483Z,10.13
2022-09-15T00:05:55.724Z,8.98
2022-09-15T00:08:23.496Z,8.93
2022-09-15T00:10:53.840Z,9.68
2022-09-15T00:13:21.441Z,8.45
2022-09-15T00:15:48.849Z,8.40
2022-09-15T00:18:15.739Z,8.52
2022-09-15T00:20:44.166Z,9.05
2022-09-15T00:23:12.298Z,8.43
2022-09-15T00:25:47.356Z,9.15
2022-09-15T00:28:15.699Z,10.30
2022-09-15T00:30:45.768Z,9.25
2022-09-15T00:33:14.113Z,9.93
2022-09-15T00:35:42.590Z,8.95
2022-09-15T00:38:10.685Z,9.55
2022-09-15T00:41:04.196Z,9.57
2022-09-15T00:43:52.123Z,8.48
2022-09-15T00:46:29.939Z,10.10
2022-09-15T00:49:32.496Z,7.85
2022-09-15T00:52:01.337Z,9.63
2022-09-15T00:54:43.959Z,10.05
2022-09-15T00:57:19.671Z,8.38
2022-09-15T00:59:47.967Z,7.60
2022-09-15T01:02:28.461Z,8.63
2022-09-15T01:04:58.554Z,7.38
2022-09-15T01:07:51.247Z,8.50
2022-09-15T01:10:28.996Z,9.43
2022-09-15T01:13:02.795Z,8.38
2022-09-15T01:15:38.259Z,8.13
2022-09-15T01:18:30.912Z,8.07
2022-09-15T01:21:06.204Z,9.93
2022-09-15T01:24:30.278Z,8.52
2022-09-15T01:27:30.469Z,8.10
2022-09-15T01:30:09.183Z,8.18
2022-09-15T01:33:08.281Z,8.10
2022-09-15T01:35:43.932Z,9.27
2022-09-15T01:38:45.267Z,8.57
2022-09-15T01:41:21.426Z,8.10
2022-09-15T01:43:57.046Z,7.88
2022-09-15T01:46:27.723Z,8.95
2022-09-15T01:48:56.603Z,8.60
2022-09-15T01:51:25.642Z,6.88
2022-09-15T01:53:53.736Z,6.97
2022-09-15T01:56:20.717Z,7.82
2022-09-15T01:58:50.741Z,8.27
2022-09-15T02:01:28.119Z,7.30
2022-09-15T02:04:01.092Z,7.55
2022-09-15T02:06:39.596Z,7.25
2022-09-15T02:09:21.526Z,7.78
2022-09-15T02:11:56.488Z,8.45
2022-09-15T02:14:37.973Z,8.13
2022-09-15T02:17:05.467Z,8.20
2022-09-15T02:19:54.898Z,7.93
2022-09-15T02:22:28.707Z,7.65
2022-09-15T02:25:04.840Z,8.27
2022-09-15T02:27:37.753Z,7.68
2022-09-15T02:30:11.680Z,8.00
2022-09-15T02:32:46.631Z,7.95
2022-09-15T02:35:15.054Z,7.65
2022-09-15T02:37:42.783Z,6.82
2022-09-15T02:40:10.258Z,7.53
2022-09-15T02:42:37.090Z,7.80
2022-09-15T02:45:04.248Z,7.05
2022-09-15T02:47:31.993Z,6.38
2022-09-15T02:49:58.683Z,8.05
2022-09-15T02:52:26.137Z,6.25
2022-09-15T02:54:53.438Z,8.73
2022-09-15T02:57:20.917Z,7.57
2022-09-15T03:00:06.313Z,7.05
2022-09-15T03:02:33.853Z,7.60
2022-09-15T03:05:00.559Z,8.45
2022-09-15T03:07:28.433Z,7.50
2022-09-15T03:09:55.224Z,7.88
2022-09-15T03:12:21.977Z,8.10
2022-09-15T03:14:48.668Z,8.90
2022-09-15T03:17:15.375Z,8.60
2022-09-15T03:19:42.248Z,7.85
2022-09-15T03:22:10.339Z,9.02
2022-09-15T03:24:38.107Z,8.45
2022-09-15T03:27:05.480Z,7.57
2022-09-15T03:29:32.221Z,8.10
2022-09-15T03:31:59.055Z,8.43
2022-09-15T03:34:25.885Z,9.52
2022-09-15T03:36:52.659Z,9.90
2022-09-15T03:39:19.358Z,8.75
2022-09-15T03:41:46.102Z,8.13
2022-09-15T03:44:12.790Z,8.23
2022-09-15T03:46:39.511Z,7.97
2022-09-15T03:49:06.288Z,9.27
2022-09-15T03:51:33.001Z,8.70
2022-09-15T03:53:59.737Z,8.80
2022-09-15T03:56:28.451Z,8.52
2022-09-15T03:58:55.607Z,8.90
2022-09-15T04:01:23.408Z,9.05
2022-09-15T04:03:51.492Z,9.25
2022-09-15T04:06:20.792Z,9.00
2022-09-15T04:08:48.487Z,8.63
2022-09-15T04:11:16.255Z,10.00
2022-09-15T04:13:44.014Z,9.40
2022-09-15T04:16:13.902Z,9.23
2022-09-15T04:18:41.071Z,8.07
2022-09-15T04:21:13.899Z,9.70
2022-09-15T04:23:41.770Z,9.50
2022-09-15T04:26:21.699Z,10.00
2022-09-15T04:28:48.515Z,9.10
2022-09-15T04:31:16.998Z,9.75
2022-09-15T04:33:44.824Z,10.32
2022-09-15T04:36:16.247Z,10.85
2022-09-15T04:38:43.894Z,8.90
2022-09-15T04:41:10.836Z,10.50
2022-09-15T04:43:37.932Z,9.88
2022-09-15T04:46:05.058Z,10.60
2022-09-15T04:48:32.018Z,8.93
2022-09-15T04:51:03.963Z,10.02
2022-09-15T04:53:31.158Z,10.18
2022-09-15T04:56:09.493Z,9.65
2022-09-15T04:58:38.518Z,10.15
2022-09-15T05:01:15.327Z,10.82
2022-09-15T05:03:42.875Z,8.55
2022-09-15T05:06:13.633Z,9.55
2022-09-15T05:08:40.878Z,9.30
2022-09-15T05:11:10.544Z,9.02
2022-09-15T05:13:38.706Z,9.85
2022-09-15T05:16:12.040Z,10.10
2022-09-15T05:18:43.332Z,10.05
2022-09-15T05:21:13.155Z,9.68
2022-09-15T05:23:40.509Z,8.75
2022-09-15T05:26:11.015Z,10.63
2022-09-15T05:28:38.462Z,11.05
2022-09-15T05:31:19.619Z,10.70
2022-09-15T05:33:48.111Z,10.73
2022-09-15T05:36:17.176Z,9.80
2022-09-15T05:38:44.046Z,9.25
2022-09-15T05:41:18.649Z,10.00
2022-09-15T05:43:50.635Z,15.40
2022-09-15T05:46:18.990Z,10.02
2022-09-15T05:48:46.171Z,16.17
2022-09-15T05:51:13.492Z,9.60
2022-09-15T05:53:40.829Z,9.25
2022-09-15T05:56:11.913Z,10.27
2022-09-15T06:01:26.805Z,9.40
2022-09-15T06:03:54.806Z,10.27
2022-09-15T06:06:22.323Z,10.35
2022-09-15T06:08:56.844Z,9.18
2022-09-15T06:11:27.166Z,10.60
2022-09-15T06:13:53.899Z,14.30
2022-09-15T06:16:23.078Z,12.57
2022-09-15T06:18:53.343Z,11.20
2022-09-15T06:21:26.235Z,10.55
2022-09-15T06:23:57.865Z,9.55
2022-09-15T06:26:26.020Z,10.70
2022-09-15T06:29:01.167Z,10.10
2022-09-15T06:31:30.143Z,11.15
2022-09-15T06:33:57.769Z,10.43
2022-09-15T06:36:27.272Z,10.30
2022-09-15T06:38:54.776Z,8.73
2022-09-15T06:41:22.080Z,10.30
2022-09-15T06:43:49.349Z,11.40
2022-09-15T06:46:22.236Z,11.88
2022-09-15T06:48:49.241Z,12.38
2022-09-15T06:51:18.178Z,10.38
2022-09-15T06:53:45.558Z,10.57
2022-09-15T06:56:21.136Z,9.95
2022-09-15T06:58:50.880Z,9.10
2022-09-15T07:01:24.049Z,9.70
2022-09-15T07:03:50.928Z,9.75
2022-09-15T07:06:18.886Z,9.40
2022-09-15T07:08:46.642Z,8.15
2022-09-15T07:11:13.789Z,8.82
2022-09-15T07:13:40.948Z,8.55
2022-09-15T07:16:10.172Z,9.68
2022-09-15T07:18:41.054Z,9.23
2022-09-15T07:21:13.593Z,9.00
2022-09-15T07:23:41.044Z,8.80
2022-09-15T07:26:13.484Z,8.48
2022-09-15T07:28:44.835Z,8.32
2022-09-15T07:31:15.168Z,8.75
2022-09-15T07:33:42.243Z,8.98
2022-09-15T07:36:09.461Z,10.07
2022-09-15T07:38:40.089Z,9.55
2022-09-15T07:41:09.893Z,9.40
2022-09-15T07:43:36.694Z,9.93
2022-09-15T07:46:03.702Z,8.93
2022-09-15T07:48:30.827Z,9.20
2022-09-15T07:50:59.711Z,8.20
2022-09-15T07:53:30.326Z,8.68
2022-09-15T07:55:57.702Z,8.88
2022-09-15T07:58:25.066Z,8.25
2022-09-15T08:00:52.126Z,9.10
2022-09-15T08:03:19.019Z,8.63
2022-09-15T08:05:46.213Z,8.82
2022-09-15T08:08:13.297Z,8.95
2022-09-15T08:10:41.286Z,7.85
2022-09-15T08:13:08.430Z,8.18
2022-09-15T08:15:37.290Z,9.32
2022-09-15T08:18:04.799Z,8.40
2022-09-15T08:20:31.883Z,8.20
2022-09-15T08:22:58.662Z,8.05
2022-09-15T08:25:25.456Z,8.23
2022-09-15T08:27:54.121Z,7.10
2022-09-15T08:30:21.270Z,8.30
2022-09-15T08:32:48.512Z,7.97
2022-09-15T08:35:15.955Z,7.85
2022-09-15T08:37:42.782Z,7.60
2022-09-15T08:40:27.176Z,7.70
2022-09-15T08:42:56.852Z,8.65
2022-09-15T08:45:28.578Z,7.78
2022-09-15T08:48:00.197Z,7.50
2022-09-15T08:50:35.511Z,7.22
2022-09-15T08:53:19.860Z,6.95
2022-09-15T08:56:00.050Z,7.35
2022-09-15T08:58:30.039Z,8.48
2022-09-15T09:01:15.443Z,7.83
2022-09-15T09:04:04.534Z,7.68
2022-09-15T09:06:47.604Z,6.97
2022-09-15T09:09:20.084Z,6.45
2022-09-15T09:12:05.450Z,6.85
2022-09-15T09:14:35.258Z,6.88
2022-09-15T09:17:04.961Z,6.97
2022-09-15T09:19:53.070Z,8.57
2022-09-15T09:22:31.605Z,6.40
2022-09-15T09:25:08.550Z,5.32
2022-09-15T09:27:48.738Z,7.57
2022-09-15T09:30:19.514Z,6.95
2022-09-15T09:33:23.132Z,7.30
2022-09-15T09:35:54.023Z,6.28
2022-09-15T09:41:17.188Z,4.88
2022-09-15T09:43:47.366Z,5.22
2022-09-15T09:46:17.515Z,6.18
2022-09-15T09:48:54.356Z,6.60
2022-09-15T09:51:29.948Z,6.13
2022-09-15T09:53:56.911Z,5.40
2022-09-15T09:56:27.342Z,5.82
2022-09-15T09:58:54.639Z,4.80
2022-09-15T10:01:25.936Z,6.05
2022-09-15T10:04:13.448Z,4.82
2022-09-15T10:06:42.277Z,6.15
2022-09-15T10:09:15.938Z,4.57
2022-09-15T10:11:52.769Z,5.18
2022-09-15T10:14:33.235Z,4.03
2022-09-15T10:17:15.548Z,4.07
2022-09-15T10:19:52.665Z,4.00
2022-09-15T10:22:36.344Z,3.63
2022-09-15T10:25:20.312Z,4.63
2022-09-15T10:28:09.267Z,4.85
2022-09-15T10:30:37.270Z,4.68
2022-09-15T10:33:26.547Z,3.70
2022-09-15T10:35:59.353Z,4.50
2022-09-15T10:38:32.729Z,3.88
2022-09-15T10:41:13.781Z,4.03
2022-09-15T10:46:23.910Z,3.28
2022-09-15T10:49:09.963Z,5.97
2022-09-15T10:52:01.714Z,4.25
2022-09-15T10:55:12.374Z,4.03
2022-09-15T10:58:16.748Z,3.90
2022-09-15T11:00:52.443Z,2.88
2022-09-15T11:03:31.778Z,2.88
2022-09-15T11:06:20.206Z,2.08
2022-09-15T11:09:04.818Z,2.30
2022-09-15T11:11:40.442Z,1.88
2022-09-15T11:14:52.533Z,1.60
2022-09-15T11:17:44.973Z,2.10
2022-09-15T11:20:39.256Z,2.47
2022-09-15T11:23:17.842Z,1.77
2022-09-15T11:25:50.631Z,1.80
2022-09-15T11:28:25.559Z,2.40
2022-09-15T11:31:19.290Z,2.42
2022-09-15T11:33:58.493Z,2.10
2022-09-15T11:36:44.872Z,2.10
2022-09-15T11:39:29.334Z,1.50
2022-09-15T11:42:07.571Z,1.88
2022-09-15T11:44:45.056Z,2.35
2022-09-15T11:47:34.888Z,1.65
2022-09-15T11:50:10.830Z,1.48
2022-09-15T11:53:02.296Z,1.60
2022-09-15T11:55:39.754Z,1.05
2022-09-15T11:58:09.636Z,1.38
2022-09-15T12:00:43.285Z,1.20
2022-09-15T12:03:28.752Z,1.00
2022-09-15T12:06:14.649Z,1.88
2022-09-15T12:08:49.642Z,1.08
2022-09-15T12:11:24.497Z,1.13
2022-09-15T12:13:52.218Z,1.60
2022-09-15T12:16:20.476Z,1.83
2022-09-15T12:18:56.232Z,1.27
2022-09-15T12:21:26.321Z,1.48
2022-09-15T12:24:18.762Z,1.30
2022-09-15T12:26:48.647Z,1.20
2022-09-15T12:29:27.545Z,1.10
2022-09-15T12:32:21.041Z,1.35
2022-09-15T12:35:10.048Z,1.00
2022-09-15T12:37:46.575Z,1.00
2022-09-15T12:40:41.812Z,1.00
2022-09-15T12:43:11.567Z,1.23
2022-09-15T12:45:41.384Z,1.10
2022-09-15T12:48:23.520Z,1.05
2022-09-15T12:50:57.006Z,0.95
2022-09-15T12:53:29.346Z,1.10
2022-09-15T12:56:08.371Z,1.02
2022-09-15T12:58:39.140Z,0.85
2022-09-15T13:01:27.233Z,1.08
2022-09-15T13:03:57.810Z,1.10
2022-09-15T13:06:35.411Z,0.98
2022-09-15T13:09:02.051Z,0.90
2022-09-15T13:11:39.178Z,1.15
2022-09-15T13:14:10.534Z,1.00
2022-09-15T13:17:07.799Z,1.15
2022-09-15T13:19:36.007Z,1.08
2022-09-15T13:22:11.605Z,0.82
2022-09-15T13:25:01.646Z,0.88
2022-09-15T13:27:48.325Z,1.75
2022-09-15T13:30:36.394Z,0.98
2022-09-15T13:39:51.090Z,0.80
2022-09-15T13:42:17.856Z,0.80
2022-09-15T13:45:12.384Z,0.95
2022-09-15T13:48:15.063Z,1.00
2022-09-15T13:50:51.369Z,1.10
2022-09-15T13:53:42.679Z,1.08
2022-09-15T13:56:27.621Z,0.88
2022-09-15T13:59:06.555Z,1.10
2022-09-15T14:01:40.550Z,0.90
2022-09-15T14:04:24.880Z,1.02
2022-09-15T14:06:57.164Z,0.82
2022-09-15T14:09:33.204Z,1.13
2022-09-15T14:12:04.829Z,1.27
2022-09-15T14:14:41.109Z,0.98
2022-09-15T14:17:21.128Z,0.90
2022-09-15T14:19:50.024Z,1.20
2022-09-15T14:22:33.971Z,0.80
2022-09-15T14:25:08.277Z,0.90
2022-09-15T14:27:36.595Z,1.00
2022-09-15T14:30:07.174Z,1.27
2022-09-15T14:32:39.837Z,0.80
2022-09-15T14:35:09.335Z,1.05
2022-09-15T14:37:36.293Z,1.50
2022-09-15T14:40:18.874Z,0.60
2022-09-15T14:42:45.665Z,0.93
2022-09-15T14:48:07.765Z,1.05
2022-09-15T14:50:35.081Z,0.75
2022-09-15T14:53:03.922Z,0.80
2022-09-15T14:55:34.780Z,0.98
2022-09-15T15:00:37.483Z,0.90
2022-09-15T15:03:31.677Z,1.23
2022-09-15T15:06:12.767Z,0.80
2022-09-15T15:09:29.038Z,1.30
2022-09-15T15:12:00.797Z,0.93
2022-09-15T15:14:28.298Z,1.00
2022-09-15T15:17:01.902Z,0.98
2022-09-15T15:19:34.420Z,1.33
2022-09-15T15:22:13.128Z,1.30
2022-09-15T15:24:42.666Z,0.63
2022-09-15T15:27:34.451Z,0.90
2022-09-15T15:30:32.163Z,0.98
2022-09-15T15:33:02.024Z,0.70
2022-09-15T15:35:30.579Z,1.33
2022-09-15T15:38:18.231Z,0.65
2022-09-15T15:40:45.745Z,0.65
2022-09-15T15:43:24.127Z,0.93
2022-09-15T15:46:13.000Z,0.80
2022-09-15T15:48:39.733Z,1.02
2022-09-15T15:51:07.546Z,0.80
2022-09-15T15:53:34.872Z,0.50
2022-09-15T15:56:01.798Z,0.98
2022-09-15T15:58:28.588Z,0.90
2022-09-15T16:00:56.870Z,0.70
2022-09-15T16:03:24.669Z,0.65
2022-09-15T16:05:58.275Z,0.60
2022-09-15T16:08:32.155Z,0.60
2022-09-15T16:11:00.601Z,0.70
2022-09-15T16:13:27.702Z,1.00
2022-09-15T16:15:57.831Z,0.55
2022-09-15T16:18:24.812Z,0.65
2022-09-15T16:20:51.601Z,0.47
2022-09-15T16:23:21.099Z,0.88
2022-09-15T16:25:49.688Z,0.70
2022-09-15T16:28:17.581Z,0.50
2022-09-15T16:30:44.411Z,0.55
2022-09-15T16:33:18.702Z,0.70
2022-09-15T16:36:09.258Z,0.60
2022-09-15T16:38:36.841Z,0.70
2022-09-15T16:41:11.147Z,0.68
2022-09-15T16:43:37.966Z,0.80
2022-09-15T16:46:06.498Z,0.65
2022-09-15T16:48:34.233Z,0.70
2022-09-15T16:53:48.382Z,0.70
2022-09-15T16:56:15.699Z,1.00
2022-09-15T16:58:42.780Z,0.57
2022-09-15T17:01:21.481Z,0.60
2022-09-15T17:03:48.757Z,0.60
2022-09-15T17:06:17.721Z,0.68
2022-09-15T17:08:45.226Z,0.60
2022-09-15T17:11:17.232Z,0.52
2022-09-15T17:13:44.330Z,0.50
2022-09-15T17:16:13.423Z,0.73
2022-09-15T17:18:40.368Z,0.63
2022-09-15T17:21:09.531Z,0.60
2022-09-15T17:23:39.338Z,0.70
2022-09-15T17:26:30.454Z,0.52
2022-09-15T17:28:58.619Z,0.60
2022-09-15T17:31:25.893Z,0.50
2022-09-15T17:33:53.039Z,0.90
2022-09-15T17:36:19.964Z,0.70
2022-09-15T17:38:48.934Z,0.60
2022-09-15T17:41:20.852Z,0.82
2022-09-15T17:43:47.892Z,0.63
2022-09-15T17:46:14.687Z,0.93
2022-09-15T17:48:41.544Z,0.63
2022-09-15T17:51:17.509Z,0.60
2022-09-15T17:53:46.642Z,0.68
2022-09-15T17:56:13.525Z,1.13
2022-09-15T17:58:41.352Z,0.70
2022-09-15T18:01:09.486Z,1.63
2022-09-15T18:03:37.166Z,0.80
2022-09-15T18:06:07.147Z,0.60
2022-09-15T18:08:35.860Z,1.13
2022-09-15T18:11:04.017Z,1.42
2022-09-15T18:13:31.344Z,0.70
2022-09-15T18:16:03.184Z,0.65
2022-09-15T18:18:30.366Z,0.70
2022-09-15T18:20:58.384Z,0.95
2022-09-15T18:23:29.250Z,0.85
2022-09-15T18:25:56.066Z,0.90
2022-09-15T18:28:22.840Z,0.80
2022-09-15T18:30:50.338Z,0.88
2022-09-15T18:33:22.235Z,0.90
2022-09-15T18:35:50.728Z,0.77
2022-09-15T18:38:17.949Z,0.95
2022-09-15T18:40:46.640Z,1.60
2022-09-15T18:43:13.428Z,0.90
2022-09-15T18:45:42.373Z,1.17
2022-09-15T18:48:12.647Z,1.00
2022-09-15T18:50:41.306Z,0.90
2022-09-15T18:53:08.016Z,0.95
2022-09-15T18:55:34.755Z,1.13
2022-09-15T18:58:01.630Z,1.00
2022-09-15T19:00:28.830Z,0.85
2022-09-15T19:02:58.071Z,0.80
2022-09-15T19:05:26.033Z,1.58
2022-09-15T19:07:53.383Z,1.20
2022-09-15T19:10:20.157Z,1.00
2022-09-15T19:12:46.995Z,0.75
2022-09-15T19:15:14.707Z,0.80
2022-09-15T19:17:42.156Z,0.85
2022-09-15T19:20:12.533Z,0.95
2022-09-15T19:22:40.072Z,0.90
2022-09-15T19:25:08.207Z,1.10
2022-09-15T19:27:35.682Z,0.90
2022-09-15T19:30:02.446Z,0.90
2022-09-15T19:32:29.391Z,1.15
2022-09-15T19:34:56.075Z,1.25
2022-09-15T19:37:22.895Z,1.20
2022-09-15T19:39:50.766Z,1.00
2022-09-15T19:42:17.608Z,1.15
2022-09-15T19:44:44.713Z,0.95
2022-09-15T19:47:11.959Z,0.82
2022-09-15T19:49:38.727Z,11.25
2022-09-15T19:52:06.438Z,4.28
2022-09-15T19:54:34.558Z,1.52
2022-09-15T19:57:02.075Z,1.00
2022-09-15T19:59:31.571Z,1.42
2022-09-15T20:02:02.682Z,1.17
2022-09-15T20:04:29.595Z,1.10
2022-09-15T20:06:56.676Z,1.00
2022-09-15T20:09:23.874Z,1.25
2022-09-15T20:11:50.591Z,0.98
2022-09-15T20:14:17.429Z,1.95
2022-09-15T20:16:44.197Z,0.93
2022-09-15T20:19:10.970Z,0.90
2022-09-15T20:21:54.018Z,1.05
2022-09-15T20:24:22.166Z,0.90
2022-09-15T20:26:48.958Z,1.00
2022-09-15T20:29:15.975Z,0.95
2022-09-15T20:31:42.820Z,0.90
2022-09-15T20:34:09.725Z,1.05
2022-09-15T20:36:38.828Z,1.48
2022-09-15T20:39:12.991Z,1.20
2022-09-15T20:41:41.850Z,1.30
2022-09-15T20:44:11.682Z,1.38
2022-09-15T20:46:38.846Z,1.05
2022-09-15T20:49:06.057Z,0.80
2022-09-15T20:51:33.767Z,1.00
2022-09-15T20:54:03.275Z,1.10
2022-09-15T20:56:31.701Z,0.90
2022-09-15T20:59:00.110Z,0.90
2022-09-15T21:01:29.123Z,0.93
2022-09-15T21:03:56.272Z,1.10
2022-09-15T21:06:25.721Z,1.10
2022-09-15T21:08:53.410Z,1.20
2022-09-15T21:11:20.819Z,1.20
2022-09-15T21:13:49.302Z,0.80
2022-09-15T21:16:22.093Z,0.95
2022-09-15T21:18:50.235Z,1.20
2022-09-15T21:21:26.222Z,1.10
2022-09-15T21:24:01.792Z,1.20
2022-09-15T21:26:33.629Z,1.15
2022-09-15T21:29:00.672Z,1.30
2022-09-15T21:31:32.769Z,1.10
2022-09-15T21:33:59.888Z,1.00
2022-09-15T21:36:29.543Z,1.10
2022-09-15T21:38:57.935Z,1.10
2022-09-15T21:41:26.895Z,1.08
2022-09-15T21:43:55.594Z,1.23
2022-09-15T21:46:25.266Z,0.88
2022-09-15T21:48:52.194Z,1.33
2022-09-15T21:51:24.547Z,1.58
2022-09-15T21:53:56.997Z,1.60
2022-09-15T21:56:24.581Z,1.33
2022-09-15T21:58:51.515Z,1.08
2022-09-15T22:01:23.820Z,1.00
2022-09-15T22:03:55.945Z,0.90
2022-09-15T22:06:30.165Z,1.40
2022-09-15T22:08:57.720Z,0.70
2022-09-15T22:11:25.061Z,0.95
2022-09-15T22:13:51.848Z,1.20
2022-09-15T22:16:21.887Z,1.10
2022-09-15T22:18:49.641Z,0.80
2022-09-15T22:21:27.814Z,0.60
2022-09-15T22:23:56.905Z,1.00
2022-09-15T22:26:29.666Z,1.00
2022-09-15T22:28:58.140Z,0.88
2022-09-15T22:31:25.788Z,0.90
2022-09-15T22:33:53.405Z,0.98
2022-09-15T22:36:27.940Z,1.30
2022-09-15T22:38:56.219Z,0.90
2022-09-15T22:41:25.760Z,0.80
2022-09-15T22:43:52.547Z,0.80
2022-09-15T22:46:19.878Z,0.80
2022-09-15T22:48:47.019Z,1.33
2022-09-15T22:51:14.816Z,1.30
2022-09-15T22:53:42.201Z,0.80
2022-09-15T22:56:19.814Z,0.73
2022-09-15T22:58:49.277Z,0.75
2022-09-15T23:01:18.694Z,1.13
2022-09-15T23:03:53.056Z,1.00
2022-09-15T23:06:21.239Z,0.98
2022-09-15T23:08:56.322Z,0.80
2022-09-15T23:11:23.762Z,0.90
2022-09-15T23:13:50.729Z,0.80
2022-09-15T23:16:17.524Z,0.95
2022-09-15T23:18:44.491Z,0.60
2022-09-15T23:21:12.833Z,0.85
2022-09-15T23:23:41.431Z,1.23
2022-09-15T23:26:10.292Z,0.73
2022-09-15T23:28:39.047Z,0.68
2022-09-15T23:31:06.948Z,0.77
2022-09-15T23:33:34.312Z,1.05
2022-09-15T23:36:02.691Z,0.70
2022-09-15T23:38:30.100Z,0.77
2022-09-15T23:40:57.195Z,1.45
2022-09-15T23:43:23.887Z,1.05
2022-09-15T23:45:51.236Z,0.90
2022-09-15T23:48:18.115Z,0.80
2022-09-15T23:50:45.198Z,0.90
2022-09-15T23:53:12.392Z,1.25
2022-09-15T23:55:39.174Z,1.13
2022-09-15T23:58:06.196Z,1.10
